createdAt,value
2017-05-21T00:00:16.295Z,12.24
2017-05-21T00:01:30.420Z,12.19
2017-05-21T00:02:44.105Z,12.17
2017-05-21T00:03:59.704Z,12.13
2017-05-21T00:05:12.474Z,12.13
2017-05-21T00:06:57.400Z,12.2
2017-05-21T00:08:12.792Z,12.16
2017-05-21T00:09:28.385Z,12.13
2017-05-21T00:10:43.729Z,12.13
2017-05-21T00:11:59.289Z,12.07
2017-05-21T00:13:14.621Z,12.05
2017-05-21T00:14:29.843Z,12.07
2017-05-21T00:15:45.195Z,12.07
2017-05-21T00:17:00.570Z,12.15
2017-05-21T00:18:14.497Z,12.09
2017-05-21T00:19:28.826Z,12.04
2017-05-21T00:20:44.271Z,12.09
2017-05-21T00:21:58.308Z,12.05
2017-05-21T00:23:12.436Z,12.05
2017-05-21T00:24:25.063Z,12.15
2017-05-21T00:25:39.360Z,12.09
2017-05-21T00:26:54.715Z,12.02
2017-05-21T00:28:09.714Z,12.13
2017-05-21T00:29:25.114Z,12.13
2017-05-21T00:30:38.249Z,12.05
2017-05-21T00:31:53.225Z,11.99
2017-05-21T00:33:07.308Z,12.02
2017-05-21T00:34:22.683Z,12.05
2017-05-21T00:35:38.262Z,11.99
2017-05-21T00:36:53.623Z,11.95
2017-05-21T00:38:08.970Z,11.95
2017-05-21T00:39:23.023Z,11.97
2017-05-21T00:40:37.296Z,11.91
2017-05-21T00:41:52.683Z,11.84
2017-05-21T00:43:05.443Z,11.94
2017-05-21T00:44:20.797Z,11.94
2017-05-21T00:45:36.403Z,11.8
2017-05-21T00:46:50.310Z,11.83
2017-05-21T00:48:05.733Z,11.77
2017-05-21T00:49:21.077Z,11.83
2017-05-21T00:50:36.821Z,11.8
2017-05-21T00:51:51.860Z,11.77
2017-05-21T00:53:07.268Z,11.76
2017-05-21T00:54:22.592Z,11.59
2017-05-21T00:55:38.152Z,11.65
2017-05-21T00:56:52.188Z,11.66
2017-05-21T00:58:07.511Z,11.68
2017-05-21T00:59:22.701Z,11.61
2017-05-21T01:00:37.061Z,11.64
2017-05-21T01:01:50.964Z,11.59
2017-05-21T01:03:02.573Z,11.64
2017-05-21T01:04:17.922Z,11.59
2017-05-21T01:05:33.481Z,11.62
2017-05-21T01:06:47.405Z,11.58
2017-05-21T01:08:01.454Z,11.59
2017-05-21T01:09:16.791Z,11.58
2017-05-21T01:10:32.124Z,11.66
2017-05-21T01:11:47.681Z,11.62
2017-05-21T01:13:03.015Z,11.53
2017-05-21T01:14:15.754Z,11.62
2017-05-21T01:15:31.092Z,11.46
2017-05-21T01:16:45.446Z,11.58
2017-05-21T01:17:58.081Z,11.49
2017-05-21T01:19:13.462Z,11.53
2017-05-21T01:20:28.456Z,11.46
2017-05-21T01:21:44.081Z,11.52
2017-05-21T01:22:58.130Z,11.48
2017-05-21T01:24:13.472Z,11.49
2017-05-21T01:25:27.830Z,11.43
2017-05-21T01:26:43.412Z,11.38
2017-05-21T01:27:54.920Z,11.39
2017-05-21T01:29:10.494Z,11.45
2017-05-21T01:30:25.828Z,11.42
2017-05-21T01:31:41.471Z,11.4
2017-05-21T01:32:56.819Z,11.38
2017-05-21T01:34:09.492Z,11.35
2017-05-21T01:35:25.050Z,11.4
2017-05-21T01:36:39.126Z,11.45
2017-05-21T01:37:54.779Z,11.42
2017-05-21T01:39:10.347Z,11.33
2017-05-21T01:40:25.756Z,11.38
2017-05-21T01:41:41.091Z,11.33
2017-05-21T01:42:56.841Z,11.3
2017-05-21T01:44:11.024Z,11.15
2017-05-21T01:45:26.588Z,11.17
2017-05-21T01:47:12.866Z,11.21
2017-05-21T01:48:26.933Z,11.25
2017-05-21T01:49:40.976Z,11.23
2017-05-21T01:50:56.689Z,11.15
2017-05-21T01:52:09.657Z,11.12
2017-05-21T01:53:23.832Z,11.15
2017-05-21T01:54:37.876Z,11.17
2017-05-21T01:55:53.155Z,11.15
2017-05-21T01:57:07.187Z,11.16
2017-05-21T01:58:21.677Z,11.16
2017-05-21T01:59:37.100Z,11.1
2017-05-21T02:00:51.153Z,11.15
2017-05-21T02:02:06.514Z,11.12
2017-05-21T02:03:22.065Z,10.97
2017-05-21T02:04:36.125Z,11.09
2017-05-21T02:05:50.070Z,11.2
2017-05-21T02:07:05.489Z,11.12
2017-05-21T02:08:21.155Z,10.98
2017-05-21T02:09:36.500Z,11.03
2017-05-21T02:10:51.864Z,11.09
2017-05-21T02:12:07.186Z,11.03
2017-05-21T02:13:22.841Z,10.98
2017-05-21T02:14:38.271Z,10.95
2017-05-21T02:15:53.612Z,11.02
2017-05-21T02:17:09.212Z,11
2017-05-21T02:18:23.597Z,11.03
2017-05-21T02:19:37.635Z,10.91
2017-05-21T02:20:52.972Z,10.91
2017-05-21T02:22:06.661Z,10.85
2017-05-21T02:23:22.250Z,10.88
2017-05-21T02:24:37.906Z,10.83
2017-05-21T02:25:53.234Z,10.91
2017-05-21T02:27:08.667Z,10.85
2017-05-21T02:28:24.501Z,10.87
2017-05-21T02:29:39.835Z,10.84
2017-05-21T02:30:53.913Z,10.85
2017-05-21T02:32:09.302Z,10.84
2017-05-21T02:33:23.629Z,10.92
2017-05-21T02:34:39.016Z,10.77
2017-05-21T02:35:52.934Z,10.72
2017-05-21T02:37:08.299Z,10.73
2017-05-21T02:38:22.333Z,10.84
2017-05-21T02:39:36.586Z,10.72
2017-05-21T02:40:52.149Z,10.66
2017-05-21T02:42:06.206Z,10.72
2017-05-21T02:43:21.540Z,10.65
2017-05-21T02:44:35.869Z,10.69
2017-05-21T02:45:49.910Z,10.65
2017-05-21T02:47:04.033Z,10.7
2017-05-21T02:48:19.354Z,10.67
2017-05-21T02:49:33.626Z,10.65
2017-05-21T02:50:47.575Z,10.67
2017-05-21T02:52:02.908Z,10.7
2017-05-21T02:53:16.633Z,10.7
2017-05-21T02:54:32.174Z,10.75
2017-05-21T02:55:47.513Z,10.67
2017-05-21T02:57:02.896Z,10.63
2017-05-21T02:58:18.230Z,10.67
2017-05-21T02:59:32.525Z,10.67
2017-05-21T03:00:47.857Z,10.69
2017-05-21T03:02:03.184Z,10.65
2017-05-21T03:03:17.237Z,10.58
2017-05-21T03:04:32.972Z,10.54
2017-05-21T03:05:48.342Z,10.57
2017-05-21T03:07:03.695Z,10.65
2017-05-21T03:08:19.045Z,10.61
2017-05-21T03:09:34.838Z,10.59
2017-05-21T03:10:50.167Z,10.61
2017-05-21T03:12:05.535Z,10.59
2017-05-21T03:13:20.872Z,10.58
2017-05-21T03:14:36.419Z,10.55
2017-05-21T03:15:50.717Z,10.61
2017-05-21T03:17:05.675Z,10.63
2017-05-21T03:18:20.949Z,10.57
2017-05-21T03:19:36.538Z,10.61
2017-05-21T03:20:50.639Z,10.65
2017-05-21T03:22:04.721Z,10.58
2017-05-21T03:23:20.053Z,10.59
2017-05-21T03:24:34.092Z,10.57
2017-05-21T03:25:48.492Z,10.58
2017-05-21T03:27:02.246Z,10.63
2017-05-21T03:28:16.313Z,10.57
2017-05-21T03:29:30.506Z,10.57
2017-05-21T03:30:46.512Z,10.58
2017-05-21T03:32:01.834Z,10.65
2017-05-21T03:33:16.862Z,10.55
2017-05-21T03:34:32.238Z,10.55
2017-05-21T03:35:47.926Z,10.65
2017-05-21T03:37:03.254Z,10.59
2017-05-21T03:38:18.678Z,10.57
2017-05-21T03:39:34.238Z,10.61
2017-05-21T03:40:49.781Z,10.57
2017-05-21T03:42:03.826Z,10.52
2017-05-21T03:43:19.191Z,10.57
2017-05-21T03:44:34.567Z,10.55
2017-05-21T03:46:21.005Z,10.61
2017-05-21T03:47:36.522Z,10.51
2017-05-21T03:48:49.283Z,10.54
2017-05-21T03:50:04.718Z,10.51
2017-05-21T03:51:18.966Z,10.57
2017-05-21T03:52:34.324Z,10.55
2017-05-21T03:53:49.716Z,10.48
2017-05-21T03:55:02.334Z,10.47
2017-05-21T03:56:16.633Z,10.45
2017-05-21T03:57:30.682Z,10.51
2017-05-21T03:58:42.122Z,10.48
2017-05-21T03:59:57.450Z,10.48
2017-05-21T04:01:11.491Z,10.55
2017-05-21T04:02:27.109Z,10.57
2017-05-21T04:03:42.580Z,10.61
2017-05-21T04:04:56.718Z,10.61
2017-05-21T04:06:09.471Z,10.65
2017-05-21T04:07:25.037Z,10.54
2017-05-21T04:08:37.659Z,10.54
2017-05-21T04:09:52.980Z,10.63
2017-05-21T04:11:05.739Z,10.55
2017-05-21T04:12:21.305Z,10.59
2017-05-21T04:13:35.525Z,10.59
2017-05-21T04:14:49.661Z,10.57
2017-05-21T04:16:02.311Z,10.58
2017-05-21T04:17:17.649Z,10.58
2017-05-21T04:19:02.655Z,10.61
2017-05-21T04:20:16.816Z,10.57
2017-05-21T04:21:30.715Z,10.58
2017-05-21T04:22:44.879Z,10.66
2017-05-21T04:24:00.249Z,10.72
2017-05-21T04:25:15.575Z,10.67
2017-05-21T04:27:01.824Z,10.75
2017-05-21T04:28:16.998Z,10.7
2017-05-21T04:29:29.748Z,10.7
2017-05-21T04:30:45.188Z,10.7
2017-05-21T04:31:59.223Z,10.8
2017-05-21T04:33:14.765Z,10.79
2017-05-21T04:34:27.520Z,10.79
2017-05-21T04:35:41.610Z,10.77
2017-05-21T04:36:55.662Z,10.84
2017-05-21T04:38:39.512Z,10.87
2017-05-21T04:39:53.606Z,10.91
2017-05-21T04:41:08.942Z,10.92
2017-05-21T04:42:24.439Z,10.95
2017-05-21T04:43:38.827Z,11.03
2017-05-21T04:44:54.163Z,11.13
2017-05-21T04:46:09.501Z,11.2
2017-05-21T04:47:24.844Z,11.17
2017-05-21T04:48:40.403Z,11.16
2017-05-21T04:49:55.967Z,11.24
2017-05-21T04:51:08.667Z,11.24
2017-05-21T04:52:22.740Z,11.15
2017-05-21T04:53:35.530Z,11.13
2017-05-21T04:54:51.126Z,11.13
2017-05-21T04:56:06.500Z,11.23
2017-05-21T04:57:22.064Z,11.28
2017-05-21T04:58:37.417Z,11.3
2017-05-21T04:59:50.375Z,11.43
2017-05-21T05:01:04.427Z,11.39
2017-05-21T05:02:18.540Z,11.43
2017-05-21T05:03:33.869Z,11.46
2017-05-21T05:04:48.164Z,11.58
2017-05-21T05:06:03.554Z,11.64
2017-05-21T05:07:17.787Z,11.62
2017-05-21T05:08:31.835Z,11.65
2017-05-21T05:09:46.186Z,11.76
2017-05-21T05:11:01.533Z,11.79
2017-05-21T05:12:16.506Z,11.87
2017-05-21T05:13:31.871Z,11.9
2017-05-21T05:14:47.416Z,11.94
2017-05-21T05:16:01.742Z,11.99
2017-05-21T05:17:17.063Z,11.98
2017-05-21T05:18:28.649Z,11.91
2017-05-21T05:19:42.906Z,11.98
2017-05-21T05:20:58.281Z,11.98
2017-05-21T05:22:13.622Z,12.08
2017-05-21T05:23:28.950Z,12.09
2017-05-21T05:24:44.893Z,12.17
2017-05-21T05:25:59.898Z,12.26
2017-05-21T05:27:12.654Z,12.27
2017-05-21T05:28:26.809Z,12.26
2017-05-21T05:29:39.454Z,12.37
2017-05-21T05:30:53.756Z,12.37
2017-05-21T05:32:07.900Z,12.38
2017-05-21T05:33:23.258Z,12.35
2017-05-21T05:34:37.357Z,12.44
2017-05-21T05:35:53.030Z,12.48
2017-05-21T05:37:07.140Z,12.53
2017-05-21T05:38:19.784Z,12.62
2017-05-21T05:39:33.871Z,12.59
2017-05-21T05:40:49.519Z,12.6
2017-05-21T05:42:03.444Z,12.66
2017-05-21T05:43:19.012Z,12.82
2017-05-21T05:44:31.903Z,12.92
2017-05-21T05:46:16.982Z,12.82
2017-05-21T05:47:31.037Z,12.85
2017-05-21T05:48:46.361Z,12.92
2017-05-21T05:50:01.756Z,12.95
2017-05-21T05:51:16.077Z,13.01
2017-05-21T05:52:28.784Z,13.01
2017-05-21T05:53:44.144Z,13.12
2017-05-21T05:54:58.244Z,13.11
2017-05-21T05:56:12.335Z,13.15
2017-05-21T05:57:27.890Z,13.27
2017-05-21T05:58:43.236Z,13.31
2017-05-21T05:59:58.613Z,13.33
2017-05-21T06:01:13.941Z,13.36
2017-05-21T06:02:29.557Z,13.4
2017-05-21T06:03:44.924Z,13.41
2017-05-21T06:04:59.884Z,13.51
2017-05-21T06:06:15.239Z,13.54
2017-05-21T06:07:30.903Z,13.58
2017-05-21T06:08:46.278Z,13.61
2017-05-21T06:10:01.627Z,13.56
2017-05-21T06:11:15.679Z,13.63
2017-05-21T06:12:30.915Z,13.64
2017-05-21T06:13:46.239Z,13.69
2017-05-21T06:15:01.809Z,13.71
2017-05-21T06:16:17.403Z,13.77
2017-05-21T06:17:33.000Z,13.77
2017-05-21T06:18:48.356Z,13.89
2017-05-21T06:20:02.306Z,13.89
2017-05-21T06:21:17.680Z,13.94
2017-05-21T06:22:33.265Z,13.82
2017-05-21T06:23:48.814Z,13.91
2017-05-21T06:25:04.150Z,13.85
2017-05-21T06:26:19.241Z,13.95
2017-05-21T06:27:35.037Z,14
2017-05-21T06:28:49.055Z,14.02
2017-05-21T06:30:04.425Z,14.11
2017-05-21T06:31:19.799Z,14.09
2017-05-21T06:32:35.377Z,14.14
2017-05-21T06:33:50.736Z,14.22
2017-05-21T06:35:05.942Z,14.28
2017-05-21T06:36:20.000Z,14.22
2017-05-21T06:37:35.540Z,14.29
2017-05-21T06:38:49.451Z,14.39
2017-05-21T06:40:04.840Z,14.39
2017-05-21T06:41:20.179Z,14.44
2017-05-21T06:42:35.961Z,14.62
2017-05-21T06:43:48.786Z,14.56
2017-05-21T06:45:04.174Z,14.54
2017-05-21T06:46:19.140Z,14.63
2017-05-21T06:47:34.778Z,14.63
2017-05-21T06:48:50.129Z,14.74
2017-05-21T06:50:04.049Z,14.77
2017-05-21T06:51:19.408Z,14.75
2017-05-21T06:52:33.655Z,14.78
2017-05-21T06:53:49.004Z,14.78
2017-05-21T06:55:04.340Z,14.84
2017-05-21T06:56:17.089Z,14.85
2017-05-21T06:57:31.439Z,14.9
2017-05-21T06:58:46.802Z,14.99
2017-05-21T07:00:02.359Z,14.95
2017-05-21T07:01:17.725Z,15.03
2017-05-21T07:02:32.003Z,15.03
2017-05-21T07:03:47.455Z,15.06
2017-05-21T07:05:02.794Z,15.23
2017-05-21T07:06:18.135Z,15.23
2017-05-21T07:07:33.670Z,15.2
2017-05-21T07:08:46.439Z,15.24
2017-05-21T07:10:00.543Z,15.2
2017-05-21T07:11:15.874Z,15.25
2017-05-21T07:13:02.301Z,15.23
2017-05-21T07:14:16.423Z,15.24
2017-05-21T07:16:02.640Z,15.27
2017-05-21T07:17:16.722Z,15.25
2017-05-21T07:18:32.298Z,15.32
2017-05-21T07:19:47.648Z,15.38
2017-05-21T07:21:02.986Z,15.45
2017-05-21T07:22:18.331Z,15.46
2017-05-21T07:23:32.484Z,15.61
2017-05-21T07:24:47.839Z,15.55
2017-05-21T07:26:01.890Z,15.6
2017-05-21T07:27:17.261Z,15.72
2017-05-21T07:28:31.556Z,15.7
2017-05-21T07:29:46.932Z,15.79
2017-05-21T07:31:02.276Z,15.84
2017-05-21T07:32:17.635Z,15.92
2017-05-21T07:33:32.869Z,15.79
2017-05-21T07:34:48.199Z,15.94
2017-05-21T07:36:02.246Z,15.96
2017-05-21T07:37:15.019Z,16.02
2017-05-21T07:38:29.077Z,16.04
2017-05-21T07:39:44.786Z,16.06
2017-05-21T07:40:58.857Z,16.16
2017-05-21T07:42:14.263Z,16.09
2017-05-21T07:43:28.351Z,16.11
2017-05-21T07:44:43.944Z,16.21
2017-05-21T07:45:58.002Z,16.31
2017-05-21T07:47:12.058Z,16.32
2017-05-21T07:48:26.120Z,16.31
2017-05-21T07:49:38.916Z,16.29
2017-05-21T07:50:52.971Z,16.39
2017-05-21T07:52:08.553Z,16.27
2017-05-21T07:53:22.676Z,16.34
2017-05-21T07:54:38.347Z,16.34
2017-05-21T07:55:52.410Z,16.42
2017-05-21T07:57:06.693Z,16.38
2017-05-21T07:58:22.048Z,16.42
2017-05-21T07:59:34.879Z,16.5
2017-05-21T08:00:50.257Z,16.5
2017-05-21T08:02:05.654Z,16.56
2017-05-21T08:03:20.997Z,16.5
2017-05-21T08:04:36.570Z,16.57
2017-05-21T08:05:51.919Z,16.61
2017-05-21T08:07:06.011Z,16.66
2017-05-21T08:08:21.405Z,16.66
2017-05-21T08:09:35.419Z,16.69
2017-05-21T08:10:51.028Z,16.75
2017-05-21T08:12:05.140Z,16.72
2017-05-21T08:13:20.517Z,16.8
2017-05-21T08:14:35.853Z,16.91
2017-05-21T08:15:47.515Z,16.99
2017-05-21T08:16:59.920Z,17.09
2017-05-21T08:18:15.515Z,17.14
2017-05-21T08:19:30.909Z,17.3
2017-05-21T08:20:45.246Z,17.24
2017-05-21T08:22:00.845Z,17.4
2017-05-21T08:23:14.929Z,17.3
2017-05-21T08:24:30.309Z,17.43
2017-05-21T08:25:44.774Z,17.47
2017-05-21T08:27:00.205Z,17.61
2017-05-21T08:28:15.558Z,17.68
2017-05-21T08:29:30.951Z,17.97
2017-05-21T08:30:46.499Z,18.09
2017-05-21T08:32:00.596Z,18.23
2017-05-21T08:33:15.960Z,18.35
2017-05-21T08:34:30.065Z,18.49
2017-05-21T08:35:44.330Z,18.62
2017-05-21T08:36:59.717Z,18.9
2017-05-21T08:38:15.120Z,19.1
2017-05-21T08:39:29.331Z,19.31
2017-05-21T08:40:44.945Z,19.46
2017-05-21T08:42:00.780Z,19.92
2017-05-21T08:43:16.150Z,20.42
2017-05-21T08:44:30.446Z,20.82
2017-05-21T08:45:44.368Z,20.97
2017-05-21T08:46:58.640Z,21.54
2017-05-21T08:48:14.122Z,21.94
2017-05-21T08:49:28.456Z,22.42
2017-05-21T08:50:41.227Z,22.65
2017-05-21T08:51:54.420Z,23.21
2017-05-21T08:53:08.600Z,23.54
2017-05-21T08:54:22.536Z,23.83
2017-05-21T08:55:37.880Z,23.92
2017-05-21T08:56:53.530Z,23.98
2017-05-21T08:58:08.529Z,23.77
2017-05-21T08:59:24.025Z,23.95
2017-05-21T09:00:39.378Z,24.16
2017-05-21T09:01:52.387Z,24.38
2017-05-21T09:03:07.736Z,24.6
2017-05-21T09:04:23.236Z,24.88
2017-05-21T09:05:38.585Z,25.06
2017-05-21T09:06:52.873Z,25.27
2017-05-21T09:08:06.824Z,25.18
2017-05-21T09:09:19.751Z,25.34
2017-05-21T09:10:33.849Z,25.65
2017-05-21T09:11:49.201Z,25.74
2017-05-21T09:13:04.788Z,25.96
2017-05-21T09:14:20.381Z,26.33
2017-05-21T09:15:35.854Z,26.46
2017-05-21T09:16:51.462Z,26.71
2017-05-21T09:18:06.662Z,26.9
2017-05-21T09:19:22.060Z,26.85
2017-05-21T09:20:37.433Z,26.77
2017-05-21T09:21:53.179Z,26.52
2017-05-21T09:23:07.828Z,26.21
2017-05-21T09:24:23.186Z,26.15
2017-05-21T09:25:35.833Z,26.33
2017-05-21T09:26:49.937Z,26.39
2017-05-21T09:28:04.299Z,25.88
2017-05-21T09:29:19.684Z,25.42
2017-05-21T09:30:35.051Z,25.06
2017-05-21T09:31:49.117Z,25.27
2017-05-21T09:33:03.431Z,25.43
2017-05-21T09:34:18.826Z,25.88
2017-05-21T09:35:34.215Z,26.3
2017-05-21T09:36:49.933Z,26.59
2017-05-21T09:38:05.533Z,26.98
2017-05-21T09:39:19.613Z,26.71
2017-05-21T09:40:34.254Z,26.24
2017-05-21T09:41:48.202Z,25.65
2017-05-21T09:43:02.528Z,25.25
2017-05-21T09:44:16.619Z,24.87
2017-05-21T09:45:32.049Z,24.35
2017-05-21T09:46:47.435Z,23.94
2017-05-21T09:48:03.006Z,23.98
2017-05-21T09:49:17.998Z,24.32
2017-05-21T09:50:33.351Z,24.78
2017-05-21T09:51:48.765Z,25.31
2017-05-21T09:53:04.323Z,25.88
2017-05-21T09:54:18.340Z,25.9
2017-05-21T09:55:33.790Z,25.46
2017-05-21T09:56:47.854Z,25.47
2017-05-21T09:58:03.471Z,25.73
2017-05-21T09:59:18.862Z,25.81
2017-05-21T10:00:34.459Z,25.62
2017-05-21T10:01:48.553Z,25.9
2017-05-21T10:03:04.132Z,26.16
2017-05-21T10:04:18.215Z,26.43
2017-05-21T10:05:33.573Z,26.56
2017-05-21T10:06:47.504Z,26.74
2017-05-21T10:08:02.858Z,26.95
2017-05-21T10:09:17.153Z,27.1
2017-05-21T10:10:32.510Z,26.95
2017-05-21T10:12:18.731Z,27.05
2017-05-21T10:13:34.381Z,27.14
2017-05-21T10:14:48.524Z,27.1
2017-05-21T10:16:03.884Z,27.15
2017-05-21T10:17:19.401Z,27.23
2017-05-21T10:18:33.729Z,27.3
2017-05-21T10:19:49.163Z,27.43
2017-05-21T10:21:04.570Z,27.28
2017-05-21T10:22:20.054Z,27.31
2017-05-21T10:23:34.414Z,27.12
2017-05-21T10:24:49.811Z,26.99
2017-05-21T10:26:03.894Z,27.11
2017-05-21T10:27:16.558Z,26.99
2017-05-21T10:28:31.917Z,26.59
2017-05-21T10:29:47.545Z,26.21
2017-05-21T10:31:02.935Z,25.69
2017-05-21T10:32:18.387Z,25.32
2017-05-21T10:33:33.777Z,24.82
2017-05-21T10:34:48.104Z,24.78
2017-05-21T10:36:03.470Z,24.44
2017-05-21T10:37:18.826Z,24.22
2017-05-21T10:38:32.972Z,24
2017-05-21T10:39:48.594Z,23.79
2017-05-21T10:41:04.191Z,23.53
2017-05-21T10:42:19.601Z,23.42
2017-05-21T10:43:33.667Z,23.42
2017-05-21T10:44:49.298Z,23.65
2017-05-21T10:46:04.678Z,23.92
2017-05-21T10:47:20.097Z,24.35
2017-05-21T10:48:34.258Z,24.51
2017-05-21T10:49:49.827Z,24.95
2017-05-21T10:51:05.239Z,25.25
2017-05-21T10:52:17.917Z,25.42
2017-05-21T10:53:31.999Z,25.55
2017-05-21T10:54:46.252Z,25.22
2017-05-21T10:56:01.656Z,24.9
2017-05-21T10:57:15.803Z,24.78
2017-05-21T10:58:31.176Z,24.43
2017-05-21T10:59:46.739Z,24.1
2017-05-21T11:01:00.843Z,24.1
2017-05-21T11:02:16.352Z,23.88
2017-05-21T11:03:30.533Z,23.75
2017-05-21T11:04:46.124Z,23.65
2017-05-21T11:06:01.497Z,23.43
2017-05-21T11:07:17.167Z,23.2
2017-05-21T11:08:32.552Z,22.99
2017-05-21T11:09:48.070Z,22.67
2017-05-21T11:11:04.318Z,22.4
2017-05-21T11:12:18.891Z,22.13
2017-05-21T11:13:34.285Z,21.88
2017-05-21T11:14:49.708Z,21.72
2017-05-21T11:16:05.119Z,21.53
2017-05-21T11:17:19.122Z,21.4
2017-05-21T11:18:34.565Z,21.33
2017-05-21T11:19:49.941Z,21.37
2017-05-21T11:21:05.342Z,21.65
2017-05-21T11:22:18.322Z,21.91
2017-05-21T11:23:32.401Z,22.33
2017-05-21T11:24:47.769Z,22.61
2017-05-21T11:26:03.283Z,23.05
2017-05-21T11:27:18.855Z,23.42
2017-05-21T11:28:34.494Z,23.91
2017-05-21T11:29:49.891Z,24.28
2017-05-21T11:31:04.121Z,24.47
2017-05-21T11:32:17.068Z,24.32
2017-05-21T11:33:32.446Z,24.2
2017-05-21T11:34:46.558Z,24
2017-05-21T11:36:01.927Z,23.72
2017-05-21T11:37:16.017Z,23.6
2017-05-21T11:38:30.354Z,23.46
2017-05-21T11:39:44.601Z,23.18
2017-05-21T11:40:58.684Z,22.86
2017-05-21T11:42:14.300Z,22.4
2017-05-21T11:43:27.163Z,22.33
2017-05-21T11:44:42.586Z,22.28
2017-05-21T11:45:56.694Z,22.46
2017-05-21T11:47:12.078Z,22.78
2017-05-21T11:48:27.658Z,23.14
2017-05-21T11:49:43.506Z,23.48
2017-05-21T11:50:57.646Z,23.75
2017-05-21T11:52:13.035Z,24.29
2017-05-21T11:53:28.635Z,24.54
2017-05-21T11:54:44.023Z,24.72
2017-05-21T11:55:59.486Z,25.06
2017-05-21T11:57:14.881Z,25.22
2017-05-21T11:58:30.477Z,25.24
2017-05-21T11:59:44.444Z,25.21
2017-05-21T12:01:00.052Z,25.24
2017-05-21T12:02:15.479Z,25.09
2017-05-21T12:03:31.102Z,24.76
2017-05-21T12:04:46.531Z,24.47
2017-05-21T12:06:00.490Z,24.28
2017-05-21T12:07:15.882Z,24
2017-05-21T12:08:31.522Z,23.79
2017-05-21T12:09:46.887Z,23.35
2017-05-21T12:11:02.258Z,23.05
2017-05-21T12:12:16.370Z,22.76
2017-05-21T12:13:30.689Z,22.3
2017-05-21T12:14:44.760Z,22.21
2017-05-21T12:16:00.167Z,22.05
2017-05-21T12:17:15.541Z,21.91
2017-05-21T12:18:31.111Z,21.76
2017-05-21T12:19:46.742Z,21.61
2017-05-21T12:21:00.828Z,21.4
2017-05-21T12:22:16.517Z,21.31
2017-05-21T12:23:32.243Z,21.23
2017-05-21T12:24:47.621Z,21.13
2017-05-21T12:26:03.095Z,21.08
2017-05-21T12:27:17.065Z,21.01
2017-05-21T12:28:32.657Z,21
2017-05-21T12:29:46.971Z,20.85
2017-05-21T12:31:02.452Z,20.81
2017-05-21T12:32:18.520Z,20.73
2017-05-21T12:33:34.596Z,20.63
2017-05-21T12:34:48.754Z,20.72
2017-05-21T12:36:02.926Z,20.64
2017-05-21T12:37:18.313Z,20.71
2017-05-21T12:38:32.707Z,20.75
2017-05-21T12:39:48.255Z,20.73
2017-05-21T12:41:02.342Z,20.81
2017-05-21T12:42:16.302Z,20.85
2017-05-21T12:43:31.729Z,20.94
2017-05-21T12:44:45.874Z,20.94
2017-05-21T12:46:00.003Z,20.96
2017-05-21T12:47:14.113Z,20.9
2017-05-21T12:48:29.566Z,20.82
2017-05-21T12:49:45.140Z,20.81
2017-05-21T12:51:00.503Z,20.76
2017-05-21T12:52:15.886Z,20.79
2017-05-21T12:54:02.658Z,20.76
2017-05-21T12:55:18.009Z,20.75
2017-05-21T12:56:30.706Z,20.75
2017-05-21T12:57:44.658Z,20.66
2017-05-21T12:59:00.396Z,20.63
2017-05-21T13:00:14.485Z,20.71
2017-05-21T13:01:29.854Z,20.6
2017-05-21T13:03:16.077Z,20.6
2017-05-21T13:04:30.406Z,20.63
2017-05-21T13:05:45.832Z,20.6
2017-05-21T13:07:01.245Z,20.61
2017-05-21T13:08:16.607Z,20.61
2017-05-21T13:09:32.297Z,20.54
2017-05-21T13:10:47.663Z,20.49
2017-05-21T13:12:01.734Z,20.45
2017-05-21T13:13:17.091Z,20.49
2017-05-21T13:14:31.369Z,20.43
2017-05-21T13:15:46.731Z,20.42
2017-05-21T13:17:02.148Z,20.43
2017-05-21T13:18:17.525Z,20.41
2017-05-21T13:19:31.889Z,20.35
2017-05-21T13:20:47.290Z,20.39
2017-05-21T13:22:02.661Z,20.35
2017-05-21T13:23:16.765Z,20.26
2017-05-21T13:24:29.607Z,20.21
2017-05-21T13:25:44.981Z,20.19
2017-05-21T13:27:00.423Z,20.12
2017-05-21T13:28:14.573Z,20.16
2017-05-21T13:29:30.158Z,20.26
2017-05-21T13:30:44.305Z,20.31
2017-05-21T13:31:59.370Z,20.46
2017-05-21T13:33:14.740Z,20.48
2017-05-21T13:34:30.536Z,20.49
2017-05-21T13:35:44.625Z,20.54
2017-05-21T13:37:00.113Z,20.54
2017-05-21T13:38:14.306Z,20.67
2017-05-21T13:39:28.398Z,20.73
2017-05-21T13:40:42.691Z,20.75
2017-05-21T13:41:56.628Z,20.85
2017-05-21T13:43:10.712Z,20.85
2017-05-21T13:44:26.097Z,20.88
2017-05-21T13:45:41.904Z,20.88
2017-05-21T13:46:55.857Z,20.91
2017-05-21T13:48:11.301Z,20.94
2017-05-21T13:49:26.663Z,20.96
2017-05-21T13:50:39.637Z,20.98
2017-05-21T13:51:55.081Z,21.04
2017-05-21T13:53:10.456Z,21.03
2017-05-21T13:54:25.486Z,21.08
2017-05-21T13:55:41.237Z,21.1
2017-05-21T13:56:56.606Z,21.22
2017-05-21T13:58:12.201Z,21.2
2017-05-21T13:59:26.536Z,21.19
2017-05-21T14:00:42.163Z,21.25
2017-05-21T14:01:55.980Z,21.13
2017-05-21T14:03:11.361Z,21.15
2017-05-21T14:04:26.827Z,21.09
2017-05-21T14:05:42.160Z,21.15
2017-05-21T14:06:56.156Z,21.18
2017-05-21T14:08:10.284Z,21.15
2017-05-21T14:09:25.678Z,21.15
2017-05-21T14:10:41.507Z,21.15
2017-05-21T14:11:55.639Z,21.15
2017-05-21T14:13:09.748Z,21.23
2017-05-21T14:14:25.113Z,21.2
2017-05-21T14:15:39.450Z,21.33
2017-05-21T14:16:54.840Z,21.22
2017-05-21T14:18:10.338Z,21.25
2017-05-21T14:19:24.683Z,21.22
2017-05-21T14:20:40.327Z,21.18
2017-05-21T14:21:55.695Z,21.23
2017-05-21T14:23:10.034Z,21.1
2017-05-21T14:24:24.209Z,21.19
2017-05-21T14:25:38.538Z,21.19
2017-05-21T14:26:54.330Z,21.35
2017-05-21T14:28:09.707Z,21.31
2017-05-21T14:29:25.080Z,21.31
2017-05-21T14:30:40.547Z,21.33
2017-05-21T14:31:56.131Z,21.19
2017-05-21T14:33:11.497Z,21.27
2017-05-21T14:34:26.936Z,21.28
2017-05-21T14:35:42.305Z,21.2
2017-05-21T14:36:58.156Z,21.38
2017-05-21T14:38:13.201Z,21.35
2017-05-21T14:39:28.563Z,21.38
2017-05-21T14:40:42.643Z,21.34
2017-05-21T14:41:56.948Z,21.35
2017-05-21T14:43:12.532Z,21.28
2017-05-21T14:44:27.544Z,21.19
2017-05-21T14:45:42.977Z,21.22
2017-05-21T14:46:58.573Z,21.22
2017-05-21T14:48:14.060Z,21.25
2017-05-21T14:49:29.507Z,21.22
2017-05-21T14:50:44.883Z,21.18
2017-05-21T14:52:00.485Z,21.12
2017-05-21T14:53:16.091Z,21.15
2017-05-21T14:54:31.748Z,21.09
2017-05-21T14:55:47.161Z,21.22
2017-05-21T14:57:02.851Z,21.31
2017-05-21T14:58:18.267Z,21.33
2017-05-21T14:59:32.403Z,21.22
2017-05-21T15:00:47.794Z,21.3
2017-05-21T15:02:02.143Z,21.31
2017-05-21T15:03:17.608Z,21.38
2017-05-21T15:04:33.015Z,21.31
2017-05-21T15:05:48.436Z,21.31
2017-05-21T15:07:01.751Z,21.37
2017-05-21T15:08:17.126Z,21.46
2017-05-21T15:09:32.628Z,21.33
2017-05-21T15:10:48.034Z,21.37
2017-05-21T15:12:02.164Z,21.4
2017-05-21T15:13:16.494Z,21.45
2017-05-21T15:14:31.968Z,21.34
2017-05-21T15:15:47.408Z,21.31
2017-05-21T15:17:01.706Z,21.3
2017-05-21T15:18:17.072Z,21.31
2017-05-21T15:19:32.594Z,21.27
2017-05-21T15:20:47.580Z,21.2
2017-05-21T15:22:01.908Z,21.3
2017-05-21T15:23:17.304Z,21.19
2017-05-21T15:24:32.720Z,21.18
2017-05-21T15:25:48.105Z,21.1
2017-05-21T15:27:03.672Z,21.06
2017-05-21T15:28:17.884Z,20.98
2017-05-21T15:29:33.728Z,20.86
2017-05-21T15:30:47.460Z,20.85
2017-05-21T15:32:02.093Z,20.71
2017-05-21T15:33:17.689Z,20.75
2017-05-21T15:34:33.074Z,20.76
2017-05-21T15:35:48.494Z,20.83
2017-05-21T15:37:03.682Z,20.83
2017-05-21T15:38:19.307Z,20.81
2017-05-21T15:39:34.677Z,20.9
2017-05-21T15:40:48.668Z,20.81
2017-05-21T15:42:02.761Z,20.79
2017-05-21T15:43:18.331Z,20.82
2017-05-21T15:44:32.434Z,20.72
2017-05-21T15:45:45.229Z,20.73
2017-05-21T15:47:00.609Z,20.61
2017-05-21T15:48:16.416Z,20.61
2017-05-21T15:49:31.795Z,20.68
2017-05-21T15:50:47.188Z,20.76
2017-05-21T15:52:02.534Z,20.81
2017-05-21T15:53:15.728Z,20.83
2017-05-21T15:54:31.100Z,20.82
2017-05-21T15:55:46.513Z,20.83
2017-05-21T15:57:01.925Z,20.96
2017-05-21T15:58:17.541Z,21.1
2017-05-21T15:59:31.623Z,21.12
2017-05-21T16:00:47.019Z,21.13
2017-05-21T16:02:01.179Z,21.1
2017-05-21T16:03:14.250Z,21.2
2017-05-21T16:04:29.610Z,21.19
2017-05-21T16:05:44.982Z,21.1
2017-05-21T16:07:00.513Z,21.1
2017-05-21T16:08:16.135Z,21.15
2017-05-21T16:09:30.213Z,21.12
2017-05-21T16:10:45.629Z,21.08
2017-05-21T16:12:01.001Z,21.09
2017-05-21T16:13:16.784Z,21.04